Time;durP1;ratioP1;P1;durP2;ratioP2;P2;SDS_P1;SDS_P2;PMS_P1;PMS_P2;Temp;Humidity;BMP_temperature;BMP_pressure;BME280_temperature;BME280_humidity;BME280_pressure;Samples;Min_cycle;Max_cycle;Signal;HPM_P1;HPM_P2
2024/03/21 00:02:48;;;;;;;151.20;69.40;;;;;;;2.72;73.62;100725.48;128523;1282;106833;-81
2024/03/21 00:05:53;;;;;;;197.90;85.00;;;;;;;2.66;73.81;100723.38;128718;1282;107850;-81
2024/03/21 00:08:58;;;;;;;147.50;65.50;;;;;;;2.62;73.88;100721.11;128520;1281;107089;-80
2024/03/21 00:12:03;;;;;;;79.30;38.30;;;;;;;2.58;73.98;100720.83;128608;1281;107802;-80
2024/03/21 00:15:10;;;;;;;57.40;30.90;;;;;;;2.53;73.78;100718.98;128607;1292;108577;-80
2024/03/21 00:18:16;;;;;;;68.30;37.30;;;;;;;2.52;73.81;100718.73;128579;1282;107512;-81
2024/03/21 00:21:21;;;;;;;56.80;31.20;;;;;;;2.48;74.01;100722.82;128410;1286;108901;-81
2024/03/21 00:24:26;;;;;;;52.60;30.70;;;;;;;2.45;74.05;100721.04;128639;1279;108223;-81
2024/03/21 00:27:31;;;;;;;47.60;25.60;;;;;;;2.44;74.11;100713.77;128679;1278;108753;-82
2024/03/21 00:30:36;;;;;;;40.10;22.90;;;;;;;2.47;74.04;100712.02;128689;1283;108809;-81
2024/03/21 00:33:47;;;;;;;47.20;27.00;;;;;;;2.51;74.16;100705.28;128697;1283;106477;-81
2024/03/21 00:36:52;;;;;;;41.50;25.80;;;;;;;2.55;74.09;100705.40;128661;1282;108093;-81
2024/03/21 00:39:58;;;;;;;35.50;22.00;;;;;;;2.58;74.15;100705.06;128526;1279;107816;-81
2024/03/21 00:43:04;;;;;;;40.90;24.80;;;;;;;2.60;74.20;100702.27;128556;1283;106513;-81
2024/03/21 00:46:09;;;;;;;42.80;24.60;;;;;;;2.58;74.02;100703.98;128316;1285;108782;-81
2024/03/21 00:49:17;;;;;;;40.00;23.50;;;;;;;2.56;74.18;100698.84;128267;1283;106561;-81
2024/03/21 00:52:22;;;;;;;40.60;23.80;;;;;;;2.53;74.06;100699.67;128521;1279;108456;-81
2024/03/21 00:55:27;;;;;;;43.30;24.50;;;;;;;2.49;74.10;100695.18;128663;1282;108743;-81
2024/03/21 00:58:32;;;;;;;40.20;23.30;;;;;;;2.46;74.20;100696.40;128433;1282;108566;-81
2024/03/21 01:01:39;;;;;;;40.30;22.60;;;;;;;2.42;74.37;100690.17;128527;1279;107504;-83
2024/03/21 01:04:50;;;;;;;40.70;24.30;;;;;;;2.40;74.45;100689.23;128319;1281;107719;-81
2024/03/21 01:07:55;;;;;;;38.80;24.30;;;;;;;2.38;74.47;100689.02;128218;1285;107887;-81
2024/03/21 01:11:00;;;;;;;39.30;22.80;;;;;;;2.35;74.53;100688.09;128262;1278;107510;-81
2024/03/21 01:14:05;;;;;;;41.30;24.70;;;;;;;2.33;74.67;100682.23;128319;1283;107639;-83
2024/03/21 01:17:11;;;;;;;43.20;24.10;;;;;;;2.33;74.96;100674.71;128279;1281;108779;-84
2024/03/21 01:20:16;;;;;;;41.40;24.40;;;;;;;2.35;75.20;100671.77;128351;1282;107842;-82
2024/03/21 01:23:22;;;;;;;41.40;24.60;;;;;;;2.40;75.42;100669.23;128313;1279;107880;-82
2024/03/21 01:26:27;;;;;;;37.20;21.60;;;;;;;2.49;75.51;100665.33;128521;1281;107862;-81
2024/03/21 01:29:33;;;;;;;40.10;24.10;;;;;;;2.61;75.52;100662.67;128627;1283;106465;-81
2024/03/21 01:32:38;;;;;;;45.00;25.80;;;;;;;2.72;75.87;100661.68;128660;1281;107643;-80
2024/03/21 01:35:44;;;;;;;48.00;27.20;;;;;;;2.82;76.10;100656.00;128752;1285;107882;-81
2024/03/21 01:38:49;;;;;;;42.20;24.80;;;;;;;2.91;76.28;100653.31;128724;1285;108641;-81
2024/03/21 01:41:54;;;;;;;45.90;26.60;;;;;;;2.97;76.37;100651.02;128860;1284;108661;-81
2024/03/21 01:45:05;;;;;;;46.30;26.60;;;;;;;3.01;76.53;100646.95;128562;1278;106463;-82
2024/03/21 01:48:10;;;;;;;45.20;26.60;;;;;;;3.04;76.79;100650.41;128589;1283;107817;-81
2024/03/21 01:51:18;;;;;;;42.80;26.80;;;;;;;3.08;76.70;100645.78;128574;1282;107356;-81
2024/03/21 01:54:23;;;;;;;43.80;25.90;;;;;;;3.09;76.84;100643.25;128555;1284;106472;-82
2024/03/21 01:57:28;;;;;;;44.00;25.60;;;;;;;3.08;76.76;100645.58;128395;1283;107155;-81
2024/03/21 02:00:33;;;;;;;39.80;24.20;;;;;;;3.08;76.85;100651.77;128359;1282;107645;-82
2024/03/21 02:03:38;;;;;;;38.10;21.20;;;;;;;3.07;76.77;100652.15;128706;1282;105815;-81
2024/03/21 02:06:43;;;;;;;45.90;24.80;;;;;;;3.08;76.76;100648.96;128667;1282;109188;-81
2024/03/21 02:09:49;;;;;;;43.10;25.00;;;;;;;3.08;76.69;100645.27;128639;1282;105661;-82
2024/03/21 02:12:55;;;;;;;45.50;26.50;;;;;;;3.06;76.85;100639.23;128677;1278;107970;-81
2024/03/21 02:16:00;;;;;;;45.20;26.80;;;;;;;3.03;77.04;100641.20;128659;1279;107085;-81
2024/03/21 02:19:05;;;;;;;43.90;25.40;;;;;;;2.99;77.03;100640.35;128635;1284;105545;-81
2024/03/21 02:25:33;;;;;;;45.50;27.30;;;;;;;2.89;76.69;100640.12;128444;1284;107784;-81
2024/03/21 02:28:39;;;;;;;47.20;26.60;;;;;;;2.80;77.07;100650.16;128451;1282;107472;-80
2024/03/21 02:31:44;;;;;;;48.00;27.90;;;;;;;2.65;77.11;100657.35;128440;1278;254022;-81
2024/03/21 02:34:49;;;;;;;43.40;25.00;;;;;;;2.48;77.08;100655.73;128542;1279;106759;-83
2024/03/21 02:37:55;;;;;;;41.70;24.60;;;;;;;2.41;77.14;100648.63;128648;1283;107965;-82
2024/03/21 02:41:00;;;;;;;44.50;24.60;;;;;;;2.40;77.20;100648.32;128630;1279;108036;-82
2024/03/21 02:44:05;;;;;;;35.40;21.10;;;;;;;2.43;77.20;100647.98;128501;1282;108824;-82
2024/03/21 02:47:10;;;;;;;40.30;23.40;;;;;;;2.45;76.88;100653.66;128282;1280;106999;-81
2024/03/21 02:50:15;;;;;;;43.60;24.00;;;;;;;2.44;76.73;100654.59;128534;1284;108032;-82
2024/03/21 02:53:20;;;;;;;40.00;23.70;;;;;;;2.43;76.77;100650.96;128635;1283;107435;-82
2024/03/21 02:56:26;;;;;;;42.00;24.50;;;;;;;2.41;76.58;100647.20;128367;1283;108701;-82
2024/03/21 02:59:32;;;;;;;42.60;24.40;;;;;;;2.38;76.66;100642.64;128500;1279;107010;-82
2024/03/21 03:02:37;;;;;;;40.60;24.40;;;;;;;2.35;76.49;100656.70;128633;1278;108390;-81
2024/03/21 03:05:43;;;;;;;38.40;22.70;;;;;;;2.26;76.39;100655.98;128456;1283;106752;-83
2024/03/21 03:08:48;;;;;;;39.80;23.90;;;;;;;2.19;76.32;100654.12;128539;1282;106744;-81
2024/03/21 03:11:53;;;;;;;41.70;23.90;;;;;;;2.14;76.31;100648.98;128979;1284;108772;-81
2024/03/21 03:14:58;;;;;;;42.70;24.00;;;;;;;2.06;76.22;100645.39;128953;1283;107636;-81
2024/03/21 03:18:03;;;;;;;47.90;25.00;;;;;;;1.97;76.14;100648.34;128164;1280;108803;-82
2024/03/21 03:21:09;;;;;;;42.50;23.00;;;;;;;1.92;76.44;100643.04;128196;1284;107253;-81
2024/03/21 03:24:14;;;;;;;42.30;24.10;;;;;;;1.87;76.39;100643.12;128114;1284;108752;-83
2024/03/21 03:27:21;;;;;;;43.00;24.10;;;;;;;1.79;76.30;100643.27;128215;1283;108717;-81
2024/03/21 03:30:26;;;;;;;50.30;27.10;;;;;;;1.74;76.38;100640.75;128600;1284;107893;-80
2024/03/21 03:36:54;;;;;;;42.50;23.40;;;;;;;1.66;76.64;100638.21;128234;1280;108751;-80
2024/03/21 03:39:59;;;;;;;36.10;19.80;;;;;;;1.69;76.87;100638.20;128276;1280;107484;-83
2024/03/21 03:43:05;;;;;;;43.20;23.80;;;;;;;1.72;76.92;100637.33;128387;1284;106588;-80
2024/03/21 03:46:10;;;;;;;37.20;22.30;;;;;;;1.76;76.92;100639.39;128202;1280;106541;-80
2024/03/21 03:49:15;;;;;;;39.90;22.90;;;;;;;1.79;77.07;100646.08;128256;1284;108837;-79
2024/03/21 03:52:20;;;;;;;39.40;22.50;;;;;;;1.78;76.89;100650.48;127991;1284;107828;-81
2024/03/21 03:55:25;;;;;;;43.40;23.80;;;;;;;1.76;76.75;100658.33;128188;1284;105587;-80
2024/03/21 03:58:30;;;;;;;40.30;22.60;;;;;;;1.73;76.71;100661.48;128173;1284;106856;-80
2024/03/21 04:01:36;;;;;;;42.40;23.70;;;;;;;1.70;76.75;100658.32;128163;1280;107067;-79
2024/03/21 04:04:41;;;;;;;40.30;23.50;;;;;;;1.68;76.66;100660.20;128166;1279;107139;-79
2024/03/21 04:07:48;;;;;;;41.80;24.20;;;;;;;1.65;76.61;100661.05;128298;1281;108626;-80
2024/03/21 04:10:55;;;;;;;40.70;23.40;;;;;;;1.59;76.69;100666.11;127996;1281;106430;-79
2024/03/21 04:14:00;;;;;;;40.50;22.20;;;;;;;1.53;76.66;100659.25;128021;1281;106833;-79
2024/03/21 04:17:05;;;;;;;41.90;23.20;;;;;;;1.49;76.68;100664.22;128161;1279;105643;-80
2024/03/21 04:20:13;;;;;;;42.70;23.70;;;;;;;1.47;76.79;100661.38;128036;1281;107163;-80
2024/03/21 04:23:19;;;;;;;42.10;23.80;;;;;;;1.43;77.03;100658.44;128629;1281;108509;-79
2024/03/21 04:26:24;;;;;;;42.60;22.50;;;;;;;1.41;77.35;100660.27;128346;1278;108811;-80
2024/03/21 04:29:29;;;;;;;42.20;23.60;;;;;;;1.41;77.59;100660.27;128221;1281;106479;-79
2024/03/21 04:32:34;;;;;;;40.70;19.90;;;;;;;1.46;77.66;100660.70;128103;1279;108572;-79
2024/03/21 04:35:39;;;;;;;43.30;22.70;;;;;;;1.52;77.55;100656.84;128299;1279;107572;-79
2024/03/21 04:38:44;;;;;;;45.20;24.50;;;;;;;1.57;77.54;100650.61;128525;1278;107016;-79
2024/03/21 04:41:49;;;;;;;49.20;27.00;;;;;;;1.63;77.89;100644.88;128104;1281;107814;-79
2024/03/21 04:44:55;;;;;;;48.20;26.60;;;;;;;1.69;78.02;100641.52;128307;1278;108713;-79
2024/03/21 04:48:00;;;;;;;48.50;26.10;;;;;;;1.73;78.03;100645.17;128718;1278;107837;-80
2024/03/21 04:51:06;;;;;;;44.10;25.00;;;;;;;1.76;78.37;100646.39;128458;1280;107633;-80
2024/03/21 04:54:11;;;;;;;46.60;26.30;;;;;;;1.80;78.49;100649.51;128388;1282;107760;-80
2024/03/21 04:57:16;;;;;;;69.60;32.70;;;;;;;1.81;78.40;100656.33;128620;1283;108691;-79
2024/03/21 05:00:22;;;;;;;134.60;53.90;;;;;;;1.82;78.36;100660.63;128527;1278;107849;-80
2024/03/21 05:03:27;;;;;;;79.00;33.40;;;;;;;1.84;78.35;100660.84;128243;1282;107830;-79
2024/03/21 05:06:32;;;;;;;48.60;25.50;;;;;;;1.89;78.27;100664.41;128016;1282;108761;-80
2024/03/21 05:09:37;;;;;;;43.60;24.80;;;;;;;1.96;78.12;100664.53;128093;1278;108799;-81
2024/03/21 05:12:43;;;;;;;36.70;20.80;;;;;;;2.06;78.25;100665.20;128279;1282;108883;-79
2024/03/21 05:15:51;;;;;;;43.50;24.50;;;;;;;2.20;78.23;100663.55;128048;1278;107216;-79
2024/03/21 05:18:56;;;;;;;42.70;24.10;;;;;;;2.35;78.29;100654.77;128252;1281;106614;-79
2024/03/21 05:22:01;;;;;;;47.90;25.90;;;;;;;2.53;78.45;100652.81;128005;1281;107856;-79
2024/03/21 05:25:07;;;;;;;45.60;26.20;;;;;;;2.69;78.67;100652.75;128051;1281;107805;-79
2024/03/21 05:28:12;;;;;;;48.50;28.00;;;;;;;2.83;78.96;100650.47;128050;1281;108762;-79
2024/03/21 05:31:23;;;;;;;53.20;28.40;;;;;;;2.94;78.90;100651.91;128106;1283;106830;-80
2024/03/21 05:34:29;;;;;;;48.60;27.70;;;;;;;3.03;79.13;100655.55;128288;1279;106607;-77
2024/03/21 05:37:34;;;;;;;53.00;29.20;;;;;;;3.13;79.54;100659.52;128217;1279;107851;-76
2024/03/21 05:40:40;;;;;;;51.20;27.70;;;;;;;3.24;79.37;100654.65;128149;1278;108706;-75
2024/03/21 05:43:46;;;;;;;48.10;27.70;;;;;;;3.36;79.53;100657.93;128219;1278;109045;-76
2024/03/21 05:46:52;;;;;;;53.00;28.60;;;;;;;3.44;79.72;100657.09;128236;1281;108771;-77
2024/03/21 05:49:57;;;;;;;77.30;39.50;;;;;;;3.58;79.80;100654.96;132445;1278;107865;-77
2024/03/21 05:53:03;;;;;;;66.60;39.80;;;;;;;3.73;79.73;100654.69;130623;1278;109049;-76
2024/03/21 05:56:08;;;;;;;74.50;42.70;;;;;;;3.85;79.87;100653.00;128168;1279;108385;-75
2024/03/21 05:59:14;;;;;;;54.70;32.10;;;;;;;3.94;79.94;100650.16;128326;1283;109031;-76
2024/03/21 06:02:19;;;;;;;53.50;31.30;;;;;;;3.98;79.89;100657.13;128182;1279;108829;-76
2024/03/21 06:05:26;;;;;;;60.20;35.90;;;;;;;4.01;80.02;100656.54;128327;1281;108443;-76
2024/03/21 06:08:31;;;;;;;59.60;37.00;;;;;;;4.06;79.85;100658.38;128001;1278;107088;-76
2024/03/21 06:11:36;;;;;;;52.80;30.20;;;;;;;4.07;80.19;100655.77;128186;1278;106650;-76
2024/03/21 06:14:42;;;;;;;52.00;29.90;;;;;;;4.09;80.52;100656.91;128059;1284;106997;-75
2024/03/21 06:17:47;;;;;;;49.40;29.40;;;;;;;4.16;80.16;100664.05;127898;1284;108571;-76
2024/03/21 06:20:52;;;;;;;45.70;27.30;;;;;;;4.28;80.50;100660.91;127752;1283;108546;-75
2024/03/21 06:23:57;;;;;;;52.60;32.20;;;;;;;4.40;80.49;100662.41;127877;1278;108773;-77
2024/03/21 06:27:02;;;;;;;51.40;32.40;;;;;;;4.50;80.60;100657.32;127775;1278;108771;-78
2024/03/21 06:30:10;;;;;;;48.60;29.50;;;;;;;4.63;80.33;100661.23;127982;1283;108727;-76
2024/03/21 06:33:15;;;;;;;48.70;29.00;;;;;;;4.76;80.35;100663.32;128018;1284;108869;-76
2024/03/21 06:36:20;;;;;;;47.00;29.30;;;;;;;4.91;80.57;100659.48;128293;1282;108603;-76
2024/03/21 06:39:25;;;;;;;46.50;29.00;;;;;;;5.07;80.53;100655.36;128211;1278;106782;-77
2024/03/21 06:42:31;;;;;;;34.50;23.20;;;;;;;5.26;80.60;100666.94;128037;1279;108616;-77
2024/03/21 06:45:37;;;;;;;42.60;24.40;;;;;;;5.42;80.64;100666.64;128371;1281;108639;-76
2024/03/21 06:48:42;;;;;;;39.80;23.60;;;;;;;5.60;80.56;100664.11;128136;1281;108828;-76
2024/03/21 06:51:47;;;;;;;40.10;23.80;;;;;;;5.78;80.50;100660.67;128368;1283;108771;-76
2024/03/21 06:54:53;;;;;;;39.40;24.50;;;;;;;5.94;80.39;100657.30;128135;1284;108839;-76
2024/03/21 06:57:58;;;;;;;37.10;24.80;;;;;;;6.06;80.28;100655.14;127968;1282;106593;-76
2024/03/21 07:01:04;;;;;;;33.70;23.10;;;;;;;6.21;80.14;100649.63;128302;1279;108850;-76
2024/03/21 07:04:09;;;;;;;35.60;23.10;;;;;;;6.34;79.94;100650.22;128052;1283;106724;-76
2024/03/21 07:07:14;;;;;;;35.20;22.90;;;;;;;6.49;79.69;100644.89;127970;1281;107734;-77
2024/03/21 07:10:20;;;;;;;33.20;22.40;;;;;;;6.61;79.32;100645.30;128030;1282;106438;-76
2024/03/21 07:13:25;;;;;;;35.30;22.70;;;;;;;6.74;79.37;100641.54;127963;1283;106575;-77
2024/03/21 07:16:30;;;;;;;32.00;22.50;;;;;;;6.86;79.00;100638.29;128024;1280;107825;-76
2024/03/21 07:19:36;;;;;;;35.10;22.10;;;;;;;6.97;78.95;100641.11;127990;1283;107626;-77
2024/03/21 07:22:43;;;;;;;33.20;21.10;;;;;;;7.09;79.03;100642.88;128108;1278;107875;-77
2024/03/21 07:25:48;;;;;;;29.90;19.10;;;;;;;7.19;79.08;100643.64;128240;1283;107672;-78
2024/03/21 07:28:53;;;;;;;29.20;18.30;;;;;;;7.30;78.90;100645.13;128087;1278;108541;-77
2024/03/21 07:31:59;;;;;;;29.70;20.70;;;;;;;7.38;78.73;100647.96;128106;1279;108566;-77
2024/03/21 07:35:05;;;;;;;31.10;21.10;;;;;;;7.53;78.36;100646.27;127968;1282;108400;-77
2024/03/21 07:38:11;;;;;;;32.20;21.40;;;;;;;7.69;78.40;100644.80;127952;1279;107826;-77
2024/03/21 07:41:16;;;;;;;31.10;21.30;;;;;;;7.85;78.09;100644.41;128014;1281;106825;-77
2024/03/21 07:44:21;;;;;;;40.80;26.50;;;;;;;7.99;78.50;100642.52;127927;1281;107866;-77
2024/03/21 07:47:26;;;;;;;37.60;24.50;;;;;;;8.14;77.93;100639.52;127939;1281;108197;-78
2024/03/21 07:50:31;;;;;;;37.50;24.60;;;;;;;8.24;78.29;100630.13;127958;1279;106686;-77
2024/03/21 07:53:36;;;;;;;33.90;22.60;;;;;;;8.36;78.21;100630.60;127999;1278;107720;-77
2024/03/21 07:56:42;;;;;;;31.80;22.10;;;;;;;8.47;77.73;100630.77;128019;1282;108830;-77
2024/03/21 07:59:47;;;;;;;34.90;23.00;;;;;;;8.53;77.33;100631.30;127974;1284;108512;-77
2024/03/21 08:02:52;;;;;;;30.60;21.60;;;;;;;8.55;77.75;100627.73;128153;1279;107846;-78
2024/03/21 08:05:58;;;;;;;35.70;25.20;;;;;;;8.60;77.17;100624.46;128049;1282;106468;-77
2024/03/21 08:09:03;;;;;;;33.90;22.20;;;;;;;8.66;77.08;100622.55;128024;1281;108785;-78
2024/03/21 08:12:09;;;;;;;32.80;23.10;;;;;;;8.71;76.76;100620.42;128244;1281;108787;-77
2024/03/21 08:15:14;;;;;;;31.80;21.40;;;;;;;8.75;76.64;100621.65;128348;1279;107834;-77
2024/03/21 08:18:19;;;;;;;31.30;22.30;;;;;;;8.76;76.66;100618.69;128113;1278;108077;-77
2024/03/21 08:21:25;;;;;;;29.50;19.90;;;;;;;8.81;76.34;100618.27;128176;1279;107619;-77
2024/03/21 08:24:30;;;;;;;27.20;20.00;;;;;;;8.89;76.57;100621.35;127964;1281;107855;-78
2024/03/21 08:27:35;;;;;;;31.80;22.80;;;;;;;8.95;75.99;100616.15;128162;1279;106971;-77
2024/03/21 08:30:44;;;;;;;28.50;19.70;;;;;;;8.99;75.79;100616.92;128020;1282;107771;-77
2024/03/21 08:33:50;;;;;;;25.10;18.70;;;;;;;9.03;75.64;100615.45;128318;1281;106636;-77
2024/03/21 08:36:55;;;;;;;36.10;23.40;;;;;;;9.09;76.26;100614.23;128321;1279;108303;-77
2024/03/21 08:40:01;;;;;;;30.00;20.90;;;;;;;9.17;76.13;100616.36;128246;1282;106505;-77
2024/03/21 08:43:06;;;;;;;31.80;21.30;;;;;;;9.26;75.82;100622.52;127929;1284;108714;-77
2024/03/21 08:46:12;;;;;;;31.90;23.70;;;;;;;9.33;74.92;100627.77;127973;1281;107188;-77
2024/03/21 08:49:17;;;;;;;28.80;19.90;;;;;;;9.39;75.33;100624.70;127957;1281;107898;-77
2024/03/21 08:52:22;;;;;;;26.80;19.40;;;;;;;9.48;75.12;100626.27;127998;1281;106635;-77
2024/03/21 08:55:27;;;;;;;28.10;19.80;;;;;;;9.59;74.94;100626.20;128106;1285;106417;-77
2024/03/21 08:58:32;;;;;;;30.10;20.20;;;;;;;9.67;74.21;100625.13;128374;1281;106558;-77
2024/03/21 09:01:38;;;;;;;24.60;17.60;;;;;;;9.73;74.65;100626.45;128294;1278;107695;-78
2024/03/21 09:04:43;;;;;;;26.20;18.60;;;;;;;9.85;74.60;100628.45;128030;1284;107711;-79
2024/03/21 09:07:48;;;;;;;26.30;19.20;;;;;;;9.96;74.38;100629.89;127926;1278;106805;-79
2024/03/21 09:11:00;;;;;;;25.20;19.70;;;;;;;10.07;74.01;100628.23;128046;1284;106321;-79
2024/03/21 09:14:05;;;;;;;26.70;19.00;;;;;;;10.19;74.12;100622.33;128031;1282;106889;-79
2024/03/21 09:17:10;;;;;;;28.30;19.80;;;;;;;10.33;73.95;100617.86;127966;1281;108589;-79
2024/03/21 09:20:15;;;;;;;45.10;29.30;;;;;;;10.48;73.89;100608.08;127911;1279;107827;-79
2024/03/21 09:23:21;;;;;;;30.70;20.80;;;;;;;10.59;73.28;100604.39;128103;1283;107851;-78
2024/03/21 09:26:27;;;;;;;32.10;22.00;;;;;;;10.70;73.38;100600.02;128143;1281;106569;-78
2024/03/21 09:29:32;;;;;;;29.00;20.30;;;;;;;10.78;73.17;100597.41;128130;1279;107300;-77
2024/03/21 09:32:37;;;;;;;28.60;19.80;;;;;;;10.86;72.44;100600.98;127931;1284;109784;-77
2024/03/21 09:35:43;;;;;;;26.80;19.30;;;;;;;10.93;72.59;100597.41;128140;1278;106921;-77
2024/03/21 09:38:48;;;;;;;28.70;19.10;;;;;;;11.03;72.64;100591.38;128329;1284;107532;-79
2024/03/21 09:41:56;;;;;;;32.50;21.50;;;;;;;11.14;72.40;100590.67;128508;1281;108826;-77
2024/03/21 09:45:03;;;;;;;60.10;33.40;;;;;;;11.21;72.25;100588.54;128330;1281;107503;-77
2024/03/21 09:48:09;;;;;;;30.70;21.70;;;;;;;11.31;72.24;100582.56;128288;1282;109085;-78
2024/03/21 09:51:20;;;;;;;29.10;19.80;;;;;;;11.39;71.67;100581.20;127923;1278;106507;-77
2024/03/21 09:54:25;;;;;;;28.80;19.20;;;;;;;11.47;71.51;100576.04;128061;1278;105511;-78
2024/03/21 09:57:31;;;;;;;24.40;18.60;;;;;;;11.56;71.53;100575.70;128085;1284;106997;-78
2024/03/21 10:00:36;;;;;;;25.90;17.90;;;;;;;11.68;71.64;100571.27;128165;1281;107954;-78
2024/03/21 10:03:42;;;;;;;25.50;18.00;;;;;;;11.78;70.58;100564.54;128277;1283;108944;-78
2024/03/21 10:06:48;;;;;;;33.10;24.40;;;;;;;11.86;70.58;100564.47;127945;1281;108700;-77
2024/03/21 10:09:57;;;;;;;32.40;23.60;;;;;;;11.93;70.50;100564.36;128343;1281;107933;-78
2024/03/21 10:13:02;;;;;;;27.80;20.00;;;;;;;12.02;70.08;100561.89;128109;1283;108657;-78
2024/03/21 10:16:08;;;;;;;27.20;18.70;;;;;;;12.09;70.02;100560.81;127910;1284;108633;-78
2024/03/21 10:19:15;;;;;;;27.00;17.90;;;;;;;12.19;70.24;100556.95;127968;1284;107785;-78
2024/03/21 10:22:21;;;;;;;27.00;18.30;;;;;;;12.29;70.08;100551.77;128042;1281;107832;-78
2024/03/21 10:25:26;;;;;;;24.10;17.10;;;;;;;12.39;69.55;100547.72;128329;1284;106799;-78
2024/03/21 10:28:32;;;;;;;27.80;19.80;;;;;;;12.49;69.79;100540.85;127928;1278;108047;-78
2024/03/21 10:31:39;;;;;;;26.80;18.60;;;;;;;12.60;69.38;100540.11;127961;1282;106933;-78
2024/03/21 10:34:51;;;;;;;24.10;16.90;;;;;;;12.66;69.36;100541.98;128036;1279;106515;-78
2024/03/21 10:37:57;;;;;;;25.20;17.00;;;;;;;12.73;68.53;100536.55;128085;1284;108016;-78
2024/03/21 10:41:08;;;;;;;23.40;17.30;;;;;;;12.80;68.65;100540.98;127960;1279;108894;-78
2024/03/21 10:44:17;;;;;;;23.20;17.40;;;;;;;12.88;68.73;100540.34;128132;1284;107824;-78
2024/03/21 10:47:22;;;;;;;29.50;21.90;;;;;;;12.93;68.00;100536.45;128240;1294;106444;-78
2024/03/21 10:50:28;;;;;;;39.10;26.60;;;;;;;13.00;67.99;100538.20;127916;1281;106629;-79
2024/03/21 10:53:35;;;;;;;27.80;19.30;;;;;;;13.10;68.01;100540.78;127945;1283;107868;-78
2024/03/21 10:56:41;;;;;;;26.90;18.90;;;;;;;13.17;67.32;100538.69;127903;1282;107913;-78
2024/03/21 10:59:57;;;;;;;27.10;19.60;;;;;;;13.23;67.49;100534.38;128150;1278;106614;-77
2024/03/21 11:03:03;;;;;;;22.80;17.30;;;;;;;13.26;66.78;100533.52;128045;1284;106748;-78
2024/03/21 11:06:13;;;;;;;23.60;19.00;;;;;;;13.33;66.72;100530.65;127922;1284;107836;-78
2024/03/21 11:09:19;;;;;;;22.90;17.60;;;;;;;13.42;66.25;100530.45;127945;1279;106390;-79
2024/03/21 11:12:24;;;;;;;29.60;20.10;;;;;;;13.44;65.97;100527.00;127971;1279;108812;-78
2024/03/21 11:15:29;;;;;;;25.10;18.60;;;;;;;13.47;65.81;100524.09;127925;1278;107824;-78
2024/03/21 11:18:34;;;;;;;23.80;18.30;;;;;;;13.49;65.70;100516.44;127863;1282;108464;-78
2024/03/21 11:21:41;;;;;;;23.80;17.00;;;;;;;13.50;65.45;100513.97;127968;1284;108677;-78
2024/03/21 11:24:47;;;;;;;23.10;17.60;;;;;;;13.54;64.93;100517.70;127923;1279;108824;-78
2024/03/21 11:27:53;;;;;;;21.90;17.20;;;;;;;13.54;64.56;100512.71;127937;1278;108824;-78
2024/03/21 11:30:58;;;;;;;21.30;16.40;;;;;;;13.54;64.73;100512.59;127885;1282;108248;-78
2024/03/21 11:34:04;;;;;;;21.80;15.90;;;;;;;13.59;64.55;100507.17;127919;1281;106663;-78
2024/03/21 11:37:14;;;;;;;19.90;15.80;;;;;;;13.63;64.38;100502.63;128271;1281;106868;-78
2024/03/21 11:40:19;;;;;;;24.30;19.00;;;;;;;13.69;64.33;100502.27;128186;1294;106452;-78
2024/03/21 11:43:25;;;;;;;23.70;18.40;;;;;;;13.74;64.11;100501.55;128126;1284;108797;-78
2024/03/21 11:46:30;;;;;;;23.30;17.20;;;;;;;13.76;62.90;100498.14;127945;1281;106638;-78
2024/03/21 11:49:36;;;;;;;23.10;17.70;;;;;;;13.74;62.58;100499.02;127969;1281;108682;-78
2024/03/21 11:52:42;;;;;;;24.40;17.70;;;;;;;13.76;63.24;100501.33;128040;1282;107817;-78
2024/03/21 11:55:48;;;;;;;20.30;15.80;;;;;;;13.80;62.82;100500.61;127979;1281;108736;-78
2024/03/21 11:58:54;;;;;;;20.90;16.40;;;;;;;13.83;62.63;100501.35;128212;1279;107800;-78
2024/03/21 12:02:01;;;;;;;21.00;16.90;;;;;;;13.86;62.58;100500.23;128147;1284;107318;-79
2024/03/21 12:05:08;;;;;;;22.70;17.10;;;;;;;13.90;62.55;100497.12;127932;1284;106835;-78
2024/03/21 12:08:13;;;;;;;22.80;15.90;;;;;;;13.94;62.68;100490.45;128089;1282;107617;-78
2024/03/21 12:11:19;;;;;;;23.10;18.60;;;;;;;13.99;62.34;100487.16;128124;1281;106560;-78
2024/03/21 12:14:24;;;;;;;21.30;16.00;;;;;;;14.01;61.92;100480.02;127908;1283;107389;-78
2024/03/21 12:17:30;;;;;;;19.70;15.30;;;;;;;13.99;61.29;100479.38;127952;1281;107817;-78
2024/03/21 12:20:34;;;;;;;20.10;16.10;;;;;;;13.95;61.56;100480.82;127893;1281;107801;-78
2024/03/21 12:23:40;;;;;;;21.90;16.20;;;;;;;13.96;61.13;100475.76;128176;1281;107619;-78
2024/03/21 12:26:45;;;;;;;20.20;15.70;;;;;;;13.96;61.08;100474.11;128177;1279;107905;-78
2024/03/21 12:29:50;;;;;;;22.50;15.50;;;;;;;14.04;61.16;100465.88;128236;1281;107855;-78
2024/03/21 12:32:55;;;;;;;17.90;14.50;;;;;;;14.12;60.31;100460.29;128174;1281;106245;-78
2024/03/21 12:36:01;;;;;;;20.00;15.20;;;;;;;14.19;60.39;100456.23;128055;1281;108055;-78
2024/03/21 12:39:07;;;;;;;19.30;14.40;;;;;;;14.26;59.70;100454.86;128302;1284;108585;-78
2024/03/21 12:42:15;;;;;;;18.30;14.70;;;;;;;14.28;59.40;100454.08;128017;1284;108743;-78
2024/03/21 12:45:20;;;;;;;20.30;15.30;;;;;;;14.29;59.85;100451.09;128106;1284;108864;-78
2024/03/21 12:48:25;;;;;;;18.80;15.30;;;;;;;14.33;59.77;100448.36;128173;1278;108602;-78
2024/03/21 12:51:31;;;;;;;18.20;14.10;;;;;;;14.34;59.72;100446.29;128071;1284;107981;-78
2024/03/21 12:54:36;;;;;;;18.60;14.90;;;;;;;14.35;59.59;100443.05;127934;1284;106784;-78
2024/03/21 12:57:41;;;;;;;20.10;15.30;;;;;;;14.37;59.11;100435.41;127940;1285;106647;-77
2024/03/21 13:00:46;;;;;;;18.50;14.90;;;;;;;14.32;58.25;100433.11;128332;1292;107735;-76
2024/03/21 13:03:52;;;;;;;20.10;15.50;;;;;;;14.28;58.94;100427.58;128201;1284;107663;-76
2024/03/21 13:06:57;;;;;;;18.30;14.70;;;;;;;14.31;58.83;100425.95;128279;1292;106552;-77
2024/03/21 13:10:03;;;;;;;18.60;14.50;;;;;;;14.32;58.96;100421.26;128145;1279;107565;-77
2024/03/21 13:13:09;;;;;;;20.60;15.80;;;;;;;14.33;58.71;100420.59;128122;1283;108782;-77
2024/03/21 13:16:14;;;;;;;21.30;16.10;;;;;;;14.30;58.44;100414.32;128140;1279;107802;-77
2024/03/21 13:19:19;;;;;;;18.30;14.20;;;;;;;14.28;58.33;100411.90;128008;1278;108978;-76
2024/03/21 13:22:24;;;;;;;18.50;14.30;;;;;;;14.25;58.19;100409.48;128333;1278;107726;-76
2024/03/21 13:25:32;;;;;;;17.90;13.80;;;;;;;14.22;57.83;100406.81;128199;1279;108719;-76
2024/03/21 13:28:37;;;;;;;18.40;14.60;;;;;;;14.19;57.32;100402.69;128011;1283;107408;-79
2024/03/21 13:31:43;;;;;;;21.30;15.10;;;;;;;14.16;57.62;100403.20;128755;1278;108163;-75
2024/03/21 13:34:52;;;;;;;18.20;14.10;;;;;;;14.13;57.08;100397.98;128110;1281;108771;-75
2024/03/21 13:37:58;;;;;;;17.80;13.00;;;;;;;14.11;57.31;100392.64;128191;1284;108562;-76
2024/03/21 13:41:03;;;;;;;19.80;14.70;;;;;;;14.12;57.48;100390.39;128331;1284;106712;-76
2024/03/21 13:44:08;;;;;;;18.50;14.30;;;;;;;14.12;57.38;100388.58;128277;1284;109316;-79
2024/03/21 13:47:14;;;;;;;19.20;14.40;;;;;;;14.13;57.37;100383.27;127977;1283;108288;-75
2024/03/21 13:50:19;;;;;;;18.70;14.30;;;;;;;14.12;56.95;100382.51;127962;1279;107851;-79
2024/03/21 13:53:24;;;;;;;19.10;14.70;;;;;;;14.12;56.92;100383.62;127993;1279;106350;-76
2024/03/21 13:56:30;;;;;;;19.60;14.30;;;;;;;14.11;56.78;100383.66;128241;1282;108839;-77
2024/03/21 13:59:35;;;;;;;19.50;14.00;;;;;;;14.09;56.27;100382.86;128292;1284;107574;-77